Hammond, New York
Current Conditions -  °F | °C
As of 7:58 AM on Wednesday 26 Nov 2014 (Local Time) from KGTB Reporting Station
Overcast Overcast  
Wind Chill: 30°   Ceiling: 3000
Heat Index: 30°   Visibility: 10mi
Dew Point: 25°   Wind: 2mph
Humidity: 79%   Direction: 90°E
Pressure: 30.22"   Gusts: NA
Location:  44.45°N, 75.69°W
Report Text: KGTB 261258Z AUTO 09002KT 10SM BKN030 OVC036 M01/M04 A3022 RMK AO2 SLP242 T10091041
Loading
Personal Weather Stations






























Interactive Weather Map New forecast layout! Learn more

10-Day Weather Forecast

Advertisements
Track Severe Weather on mobile